sensor_id;sensor_type;location;lat;lon;timestamp;P1;durP1;ratioP1;P2;durP2;ratioP2
77402;SDS011;66472;53.046;8.656;2023-01-16T00:01:30;8.30;;;5.63;;
77402;SDS011;66472;53.046;8.656;2023-01-16T00:06:25;5.78;;;5.38;;
77402;SDS011;66472;53.046;8.656;2023-01-16T00:11:20;6.00;;;5.33;;
77402;SDS011;66472;53.046;8.656;2023-01-16T00:16:16;5.47;;;4.88;;
77402;SDS011;66472;53.046;8.656;2023-01-16T00:21:13;5.80;;;5.17;;
77402;SDS011;66472;53.046;8.656;2023-01-16T00:26:09;5.40;;;5.00;;
77402;SDS011;66472;53.046;8.656;2023-01-16T00:31:07;5.10;;;4.73;;
77402;SDS011;66472;53.046;8.656;2023-01-16T00:36:02;6.27;;;5.40;;
77402;SDS011;66472;53.046;8.656;2023-01-16T00:40:58;5.03;;;4.73;;
77402;SDS011;66472;53.046;8.656;2023-01-16T00:45:53;5.07;;;4.70;;
77402;SDS011;66472;53.046;8.656;2023-01-16T00:50:49;8.77;;;5.43;;
77402;SDS011;66472;53.046;8.656;2023-01-16T00:55:44;5.93;;;5.33;;
77402;SDS011;66472;53.046;8.656;2023-01-16T01:00:39;6.90;;;6.22;;
77402;SDS011;66472;53.046;8.656;2023-01-16T01:05:55;5.77;;;5.20;;
77402;SDS011;66472;53.046;8.656;2023-01-16T01:10:50;6.10;;;5.60;;
77402;SDS011;66472;53.046;8.656;2023-01-16T01:15:45;7.70;;;6.00;;
77402;SDS011;66472;53.046;8.656;2023-01-16T01:20:41;7.75;;;6.13;;
77402;SDS011;66472;53.046;8.656;2023-01-16T01:25:37;7.40;;;6.20;;
77402;SDS011;66472;53.046;8.656;2023-01-16T01:30:32;6.97;;;6.37;;
77402;SDS011;66472;53.046;8.656;2023-01-16T01:35:27;6.10;;;5.60;;
77402;SDS011;66472;53.046;8.656;2023-01-16T01:40:22;5.77;;;5.37;;
77402;SDS011;66472;53.046;8.656;2023-01-16T01:45:19;6.67;;;6.07;;
77402;SDS011;66472;53.046;8.656;2023-01-16T01:50:17;7.50;;;5.60;;
77402;SDS011;66472;53.046;8.656;2023-01-16T01:55:13;6.60;;;6.10;;
77402;SDS011;66472;53.046;8.656;2023-01-16T02:00:14;10.47;;;6.30;;
77402;SDS011;66472;53.046;8.656;2023-01-16T02:05:10;11.40;;;6.53;;
77402;SDS011;66472;53.046;8.656;2023-01-16T02:15:21;10.17;;;6.63;;
77402;SDS011;66472;53.046;8.656;2023-01-16T02:20:19;6.77;;;6.17;;
77402;SDS011;66472;53.046;8.656;2023-01-16T02:25:21;6.77;;;6.17;;
77402;SDS011;66472;53.046;8.656;2023-01-16T02:30:44;8.53;;;6.47;;
77402;SDS011;66472;53.046;8.656;2023-01-16T02:35:45;5.90;;;5.43;;
77402;SDS011;66472;53.046;8.656;2023-01-16T02:56:08;7.10;;;6.40;;
77402;SDS011;66472;53.046;8.656;2023-01-16T03:01:05;8.73;;;6.13;;
77402;SDS011;66472;53.046;8.656;2023-01-16T03:06:03;5.60;;;5.20;;
77402;SDS011;66472;53.046;8.656;2023-01-16T03:16:01;8.23;;;6.60;;
77402;SDS011;66472;53.046;8.656;2023-01-16T03:21:10;8.60;;;7.10;;
77402;SDS011;66472;53.046;8.656;2023-01-16T03:26:16;8.87;;;5.73;;
77402;SDS011;66472;53.046;8.656;2023-01-16T03:31:15;6.70;;;6.20;;
77402;SDS011;66472;53.046;8.656;2023-01-16T03:36:15;6.47;;;5.87;;
77402;SDS011;66472;53.046;8.656;2023-01-16T03:41:12;6.83;;;5.63;;
77402;SDS011;66472;53.046;8.656;2023-01-16T03:46:11;7.73;;;7.03;;
77402;SDS011;66472;53.046;8.656;2023-01-16T03:51:07;7.57;;;6.40;;
77402;SDS011;66472;53.046;8.656;2023-01-16T03:56:07;6.10;;;5.70;;
77402;SDS011;66472;53.046;8.656;2023-01-16T04:06:09;7.00;;;6.30;;
77402;SDS011;66472;53.046;8.656;2023-01-16T04:11:07;7.17;;;6.60;;
77402;SDS011;66472;53.046;8.656;2023-01-16T04:16:04;7.20;;;6.67;;
77402;SDS011;66472;53.046;8.656;2023-01-16T04:21:03;6.53;;;5.93;;
77402;SDS011;66472;53.046;8.656;2023-01-16T04:25:58;6.67;;;6.17;;
77402;SDS011;66472;53.046;8.656;2023-01-16T04:30:54;6.50;;;6.10;;
77402;SDS011;66472;53.046;8.656;2023-01-16T04:35:49;8.23;;;7.72;;
77402;SDS011;66472;53.046;8.656;2023-01-16T04:40:44;7.55;;;7.07;;
77402;SDS011;66472;53.046;8.656;2023-01-16T04:45:39;7.23;;;6.63;;
77402;SDS011;66472;53.046;8.656;2023-01-16T04:50:35;8.77;;;7.23;;
77402;SDS011;66472;53.046;8.656;2023-01-16T04:55:30;8.90;;;8.10;;
77402;SDS011;66472;53.046;8.656;2023-01-16T05:00:26;7.07;;;6.67;;
77402;SDS011;66472;53.046;8.656;2023-01-16T05:05:21;7.30;;;6.80;;
77402;SDS011;66472;53.046;8.656;2023-01-16T05:10:16;8.13;;;7.30;;
77402;SDS011;66472;53.046;8.656;2023-01-16T05:15:12;8.80;;;8.20;;
77402;SDS011;66472;53.046;8.656;2023-01-16T05:20:07;8.30;;;7.80;;
77402;SDS011;66472;53.046;8.656;2023-01-16T05:25:02;7.43;;;6.77;;
77402;SDS011;66472;53.046;8.656;2023-01-16T05:29:58;6.97;;;6.40;;
77402;SDS011;66472;53.046;8.656;2023-01-16T05:34:53;7.13;;;6.73;;
77402;SDS011;66472;53.046;8.656;2023-01-16T05:39:48;7.60;;;7.10;;
77402;SDS011;66472;53.046;8.656;2023-01-16T05:44:44;7.82;;;7.28;;
77402;SDS011;66472;53.046;8.656;2023-01-16T05:49:39;10.38;;;7.18;;
77402;SDS011;66472;53.046;8.656;2023-01-16T05:54:34;8.50;;;7.87;;
77402;SDS011;66472;53.046;8.656;2023-01-16T05:59:29;9.13;;;8.43;;
77402;SDS011;66472;53.046;8.656;2023-01-16T06:04:25;7.37;;;6.97;;
77402;SDS011;66472;53.046;8.656;2023-01-16T06:09:20;9.43;;;8.73;;
77402;SDS011;66472;53.046;8.656;2023-01-16T06:14:15;9.07;;;8.43;;
77402;SDS011;66472;53.046;8.656;2023-01-16T06:19:10;10.70;;;9.77;;
77402;SDS011;66472;53.046;8.656;2023-01-16T06:24:06;11.77;;;10.87;;
77402;SDS011;66472;53.046;8.656;2023-01-16T06:29:01;10.80;;;9.87;;
77402;SDS011;66472;53.046;8.656;2023-01-16T06:33:56;11.97;;;10.97;;
77402;SDS011;66472;53.046;8.656;2023-01-16T06:38:51;9.67;;;8.73;;
77402;SDS011;66472;53.046;8.656;2023-01-16T06:43:47;8.80;;;8.27;;
77402;SDS011;66472;53.046;8.656;2023-01-16T06:48:42;8.27;;;7.77;;
77402;SDS011;66472;53.046;8.656;2023-01-16T06:53:37;13.63;;;10.13;;
77402;SDS011;66472;53.046;8.656;2023-01-16T06:58:33;8.60;;;8.00;;
77402;SDS011;66472;53.046;8.656;2023-01-16T07:03:28;10.20;;;9.30;;
77402;SDS011;66472;53.046;8.656;2023-01-16T07:08:23;11.10;;;10.10;;
77402;SDS011;66472;53.046;8.656;2023-01-16T07:13:18;9.70;;;8.93;;
77402;SDS011;66472;53.046;8.656;2023-01-16T07:18:21;9.07;;;8.37;;
77402;SDS011;66472;53.046;8.656;2023-01-16T07:23:36;9.77;;;8.60;;
77402;SDS011;66472;53.046;8.656;2023-01-16T07:28:32;8.37;;;7.57;;
77402;SDS011;66472;53.046;8.656;2023-01-16T07:33:27;10.13;;;8.70;;
77402;SDS011;66472;53.046;8.656;2023-01-16T07:38:22;9.17;;;8.43;;
77402;SDS011;66472;53.046;8.656;2023-01-16T07:43:18;8.00;;;7.50;;
77402;SDS011;66472;53.046;8.656;2023-01-16T07:48:13;7.22;;;6.78;;
77402;SDS011;66472;53.046;8.656;2023-01-16T07:53:09;7.10;;;6.70;;
77402;SDS011;66472;53.046;8.656;2023-01-16T07:58:04;6.22;;;5.93;;
77402;SDS011;66472;53.046;8.656;2023-01-16T08:02:59;7.47;;;6.90;;
77402;SDS011;66472;53.046;8.656;2023-01-16T08:07:54;6.77;;;6.27;;
77402;SDS011;66472;53.046;8.656;2023-01-16T08:12:50;7.30;;;6.10;;
77402;SDS011;66472;53.046;8.656;2023-01-16T08:17:45;7.93;;;7.20;;
77402;SDS011;66472;53.046;8.656;2023-01-16T08:22:41;6.45;;;6.10;;
77402;SDS011;66472;53.046;8.656;2023-01-16T08:27:36;7.03;;;6.63;;
77402;SDS011;66472;53.046;8.656;2023-01-16T08:32:32;6.77;;;6.33;;
77402;SDS011;66472;53.046;8.656;2023-01-16T08:37:27;7.40;;;6.77;;
77402;SDS011;66472;53.046;8.656;2023-01-16T08:42:22;7.13;;;6.53;;
77402;SDS011;66472;53.046;8.656;2023-01-16T08:47:36;6.93;;;6.53;;
77402;SDS011;66472;53.046;8.656;2023-01-16T08:52:50;6.67;;;6.00;;
77402;SDS011;66472;53.046;8.656;2023-01-16T08:57:46;6.97;;;6.53;;
77402;SDS011;66472;53.046;8.656;2023-01-16T09:02:42;7.00;;;6.50;;
77402;SDS011;66472;53.046;8.656;2023-01-16T09:07:37;6.67;;;6.20;;
77402;SDS011;66472;53.046;8.656;2023-01-16T09:12:32;6.37;;;6.07;;
77402;SDS011;66472;53.046;8.656;2023-01-16T09:17:46;6.83;;;6.43;;
77402;SDS011;66472;53.046;8.656;2023-01-16T09:22:41;6.53;;;6.03;;
77402;SDS011;66472;53.046;8.656;2023-01-16T09:27:37;6.73;;;6.27;;
77402;SDS011;66472;53.046;8.656;2023-01-16T09:32:32;6.40;;;6.00;;
77402;SDS011;66472;53.046;8.656;2023-01-16T09:37:28;6.03;;;5.63;;
77402;SDS011;66472;53.046;8.656;2023-01-16T09:42:30;6.60;;;6.23;;
77402;SDS011;66472;53.046;8.656;2023-01-16T09:47:46;6.97;;;6.47;;
77402;SDS011;66472;53.046;8.656;2023-01-16T09:52:45;5.90;;;5.50;;
77402;SDS011;66472;53.046;8.656;2023-01-16T09:58:01;6.13;;;5.37;;
77402;SDS011;66472;53.046;8.656;2023-01-16T10:03:15;7.03;;;6.57;;
77402;SDS011;66472;53.046;8.656;2023-01-16T10:08:17;6.23;;;5.73;;
77402;SDS011;66472;53.046;8.656;2023-01-16T10:23:46;5.33;;;5.03;;
77402;SDS011;66472;53.046;8.656;2023-01-16T10:28:46;6.13;;;5.83;;
77402;SDS011;66472;53.046;8.656;2023-01-16T10:33:47;6.27;;;5.87;;
77402;SDS011;66472;53.046;8.656;2023-01-16T10:38:44;5.63;;;5.37;;
77402;SDS011;66472;53.046;8.656;2023-01-16T10:43:40;6.60;;;6.10;;
77402;SDS011;66472;53.046;8.656;2023-01-16T10:49:07;5.10;;;4.80;;
77402;SDS011;66472;53.046;8.656;2023-01-16T10:54:21;6.10;;;5.50;;
77402;SDS011;66472;53.046;8.656;2023-01-16T10:59:16;5.97;;;5.10;;
77402;SDS011;66472;53.046;8.656;2023-01-16T11:04:12;5.50;;;5.20;;
77402;SDS011;66472;53.046;8.656;2023-01-16T11:14:12;6.13;;;5.37;;
77402;SDS011;66472;53.046;8.656;2023-01-16T11:19:26;5.57;;;5.27;;
77402;SDS011;66472;53.046;8.656;2023-01-16T11:24:24;6.03;;;5.70;;
77402;SDS011;66472;53.046;8.656;2023-01-16T11:29:25;6.20;;;5.67;;
77402;SDS011;66472;53.046;8.656;2023-01-16T11:34:20;6.23;;;5.73;;
77402;SDS011;66472;53.046;8.656;2023-01-16T11:39:18;5.23;;;4.83;;
77402;SDS011;66472;53.046;8.656;2023-01-16T11:44:19;5.47;;;5.07;;
77402;SDS011;66472;53.046;8.656;2023-01-16T11:49:42;5.77;;;5.13;;
77402;SDS011;66472;53.046;8.656;2023-01-16T11:54:39;6.17;;;5.63;;
77402;SDS011;66472;53.046;8.656;2023-01-16T12:16:15;6.00;;;5.57;;
77402;SDS011;66472;53.046;8.656;2023-01-16T12:20:44;4.83;;;4.63;;
77402;SDS011;66472;53.046;8.656;2023-01-16T12:31:17;6.67;;;6.27;;
77402;SDS011;66472;53.046;8.656;2023-01-16T12:36:40;7.13;;;6.50;;
77402;SDS011;66472;53.046;8.656;2023-01-16T12:47:21;7.20;;;6.80;;
77402;SDS011;66472;53.046;8.656;2023-01-16T12:52:26;7.17;;;6.67;;
77402;SDS011;66472;53.046;8.656;2023-01-16T13:02:58;7.53;;;7.03;;
77402;SDS011;66472;53.046;8.656;2023-01-16T13:07:57;7.63;;;7.23;;
77402;SDS011;66472;53.046;8.656;2023-01-16T13:12:55;8.17;;;7.67;;
77402;SDS011;66472;53.046;8.656;2023-01-16T13:18:14;7.73;;;7.33;;
77402;SDS011;66472;53.046;8.656;2023-01-16T13:23:20;9.70;;;9.03;;
77402;SDS011;66472;53.046;8.656;2023-01-16T13:28:21;7.10;;;6.60;;
77402;SDS011;66472;53.046;8.656;2023-01-16T13:33:19;7.77;;;7.27;;
77402;SDS011;66472;53.046;8.656;2023-01-16T13:43:47;7.37;;;6.77;;
77402;SDS011;66472;53.046;8.656;2023-01-16T13:49:04;7.60;;;7.20;;
77402;SDS011;66472;53.046;8.656;2023-01-16T13:54:00;8.63;;;8.03;;
77402;SDS011;66472;53.046;8.656;2023-01-16T14:14:20;6.90;;;6.60;;
77402;SDS011;66472;53.046;8.656;2023-01-16T14:19:36;8.47;;;7.83;;
77402;SDS011;66472;53.046;8.656;2023-01-16T14:29:47;8.60;;;8.20;;
77402;SDS011;66472;53.046;8.656;2023-01-16T14:39:49;8.47;;;8.07;;
77402;SDS011;66472;53.046;8.656;2023-01-16T14:44:57;8.93;;;8.37;;
77402;SDS011;66472;53.046;8.656;2023-01-16T14:50:13;8.23;;;7.83;;
77402;SDS011;66472;53.046;8.656;2023-01-16T14:55:29;11.77;;;6.97;;
77402;SDS011;66472;53.046;8.656;2023-01-16T15:00:25;6.97;;;6.67;;
77402;SDS011;66472;53.046;8.656;2023-01-16T15:05:23;7.57;;;7.17;;
77402;SDS011;66472;53.046;8.656;2023-01-16T15:10:43;7.33;;;6.93;;
77402;SDS011;66472;53.046;8.656;2023-01-16T15:15:40;7.83;;;7.40;;
77402;SDS011;66472;53.046;8.656;2023-01-16T15:20:38;7.07;;;6.67;;
77402;SDS011;66472;53.046;8.656;2023-01-16T15:30:50;6.63;;;6.33;;
77402;SDS011;66472;53.046;8.656;2023-01-16T15:35:56;7.27;;;6.67;;
77402;SDS011;66472;53.046;8.656;2023-01-16T15:40:52;7.43;;;6.93;;
77402;SDS011;66472;53.046;8.656;2023-01-16T15:45:58;7.80;;;7.30;;
77402;SDS011;66472;53.046;8.656;2023-01-16T15:51:19;6.37;;;6.07;;
77402;SDS011;66472;53.046;8.656;2023-01-16T15:56:22;6.77;;;6.27;;
77402;SDS011;66472;53.046;8.656;2023-01-16T16:01:26;7.03;;;6.73;;
77402;SDS011;66472;53.046;8.656;2023-01-16T16:06:22;7.33;;;6.83;;
77402;SDS011;66472;53.046;8.656;2023-01-16T16:11:21;7.50;;;7.10;;
77402;SDS011;66472;53.046;8.656;2023-01-16T16:16:36;6.80;;;6.40;;
77402;SDS011;66472;53.046;8.656;2023-01-16T16:21:50;6.90;;;6.47;;
77402;SDS011;66472;53.046;8.656;2023-01-16T16:27:05;7.07;;;6.30;;
77402;SDS011;66472;53.046;8.656;2023-01-16T16:32:02;7.27;;;6.67;;
77402;SDS011;66472;53.046;8.656;2023-01-16T16:36:58;7.13;;;6.83;;
77402;SDS011;66472;53.046;8.656;2023-01-16T16:41:54;6.07;;;5.77;;
77402;SDS011;66472;53.046;8.656;2023-01-16T16:47:13;6.17;;;5.80;;
77402;SDS011;66472;53.046;8.656;2023-01-16T16:57:16;5.40;;;5.10;;
77402;SDS011;66472;53.046;8.656;2023-01-16T17:02:11;5.93;;;5.63;;
77402;SDS011;66472;53.046;8.656;2023-01-16T17:07:08;5.80;;;5.50;;
77402;SDS011;66472;53.046;8.656;2023-01-16T17:12:14;6.00;;;5.60;;
77402;SDS011;66472;53.046;8.656;2023-01-16T17:17:10;6.10;;;5.77;;
77402;SDS011;66472;53.046;8.656;2023-01-16T17:22:06;5.07;;;4.80;;
77402;SDS011;66472;53.046;8.656;2023-01-16T17:27:01;7.35;;;6.80;;
77402;SDS011;66472;53.046;8.656;2023-01-16T17:31:57;6.20;;;5.90;;
77402;SDS011;66472;53.046;8.656;2023-01-16T17:36:59;5.93;;;5.53;;
77402;SDS011;66472;53.046;8.656;2023-01-16T17:41:54;6.17;;;5.77;;
77402;SDS011;66472;53.046;8.656;2023-01-16T17:46:50;6.00;;;5.63;;
77402;SDS011;66472;53.046;8.656;2023-01-16T17:51:45;6.50;;;6.20;;
77402;SDS011;66472;53.046;8.656;2023-01-16T17:56:40;6.60;;;6.20;;
77402;SDS011;66472;53.046;8.656;2023-01-16T18:01:35;6.70;;;6.40;;
77402;SDS011;66472;53.046;8.656;2023-01-16T18:06:32;8.20;;;7.70;;
77402;SDS011;66472;53.046;8.656;2023-01-16T18:11:27;9.30;;;8.60;;
77402;SDS011;66472;53.046;8.656;2023-01-16T18:16:41;8.90;;;8.40;;
77402;SDS011;66472;53.046;8.656;2023-01-16T18:21:55;8.23;;;7.77;;
77402;SDS011;66472;53.046;8.656;2023-01-16T18:26:57;8.60;;;8.10;;
77402;SDS011;66472;53.046;8.656;2023-01-16T18:31:53;8.43;;;7.87;;
77402;SDS011;66472;53.046;8.656;2023-01-16T18:37:07;7.80;;;7.40;;
77402;SDS011;66472;53.046;8.656;2023-01-16T18:42:02;9.60;;;8.83;;
77402;SDS011;66472;53.046;8.656;2023-01-16T18:47:16;8.73;;;8.07;;
77402;SDS011;66472;53.046;8.656;2023-01-16T18:52:32;7.70;;;7.30;;
77402;SDS011;66472;53.046;8.656;2023-01-16T18:57:46;8.20;;;7.70;;
77402;SDS011;66472;53.046;8.656;2023-01-16T19:03:14;7.67;;;7.27;;
77402;SDS011;66472;53.046;8.656;2023-01-16T19:08:11;8.47;;;8.03;;
77402;SDS011;66472;53.046;8.656;2023-01-16T19:13:16;6.87;;;6.47;;
77402;SDS011;66472;53.046;8.656;2023-01-16T19:18:12;6.77;;;6.37;;
77402;SDS011;66472;53.046;8.656;2023-01-16T19:23:07;6.93;;;6.43;;
77402;SDS011;66472;53.046;8.656;2023-01-16T19:28:05;6.50;;;6.17;;
77402;SDS011;66472;53.046;8.656;2023-01-16T19:33:00;7.93;;;7.53;;
77402;SDS011;66472;53.046;8.656;2023-01-16T19:37:56;7.50;;;6.93;;
77402;SDS011;66472;53.046;8.656;2023-01-16T19:42:51;8.70;;;8.10;;
77402;SDS011;66472;53.046;8.656;2023-01-16T19:48:19;7.97;;;7.57;;
77402;SDS011;66472;53.046;8.656;2023-01-16T19:53:15;8.67;;;8.17;;
77402;SDS011;66472;53.046;8.656;2023-01-16T19:58:10;8.37;;;7.87;;
77402;SDS011;66472;53.046;8.656;2023-01-16T20:03:06;10.07;;;8.03;;
77402;SDS011;66472;53.046;8.656;2023-01-16T20:08:01;8.20;;;7.70;;
77402;SDS011;66472;53.046;8.656;2023-01-16T20:12:56;8.93;;;8.33;;
77402;SDS011;66472;53.046;8.656;2023-01-16T20:17:51;8.77;;;8.27;;
77402;SDS011;66472;53.046;8.656;2023-01-16T20:22:46;8.50;;;8.10;;
77402;SDS011;66472;53.046;8.656;2023-01-16T20:27:42;8.50;;;7.90;;
77402;SDS011;66472;53.046;8.656;2023-01-16T20:32:37;8.00;;;7.43;;
77402;SDS011;66472;53.046;8.656;2023-01-16T20:37:32;8.90;;;8.32;;
77402;SDS011;66472;53.046;8.656;2023-01-16T20:42:27;8.83;;;8.23;;
77402;SDS011;66472;53.046;8.656;2023-01-16T20:47:41;7.47;;;6.97;;
77402;SDS011;66472;53.046;8.656;2023-01-16T20:52:37;7.25;;;6.85;;
77402;SDS011;66472;53.046;8.656;2023-01-16T20:57:34;6.87;;;6.47;;
77402;SDS011;66472;53.046;8.656;2023-01-16T21:02:29;7.80;;;7.30;;
77402;SDS011;66472;53.046;8.656;2023-01-16T21:07:24;8.20;;;7.65;;
77402;SDS011;66472;53.046;8.656;2023-01-16T21:12:20;7.70;;;7.20;;
77402;SDS011;66472;53.046;8.656;2023-01-16T21:17:34;7.40;;;6.90;;
77402;SDS011;66472;53.046;8.656;2023-01-16T21:22:48;7.37;;;6.97;;
77402;SDS011;66472;53.046;8.656;2023-01-16T21:27:43;8.27;;;7.77;;
77402;SDS011;66472;53.046;8.656;2023-01-16T21:32:39;8.13;;;7.63;;
77402;SDS011;66472;53.046;8.656;2023-01-16T21:37:34;7.40;;;6.90;;
77402;SDS011;66472;53.046;8.656;2023-01-16T21:42:31;7.53;;;7.13;;
77402;SDS011;66472;53.046;8.656;2023-01-16T21:47:45;8.10;;;7.70;;
77402;SDS011;66472;53.046;8.656;2023-01-16T21:52:41;7.17;;;6.67;;
77402;SDS011;66472;53.046;8.656;2023-01-16T21:57:36;7.93;;;7.43;;
77402;SDS011;66472;53.046;8.656;2023-01-16T22:02:33;8.53;;;8.03;;
77402;SDS011;66472;53.046;8.656;2023-01-16T22:07:29;8.80;;;8.30;;
77402;SDS011;66472;53.046;8.656;2023-01-16T22:12:24;9.30;;;8.80;;
77402;SDS011;66472;53.046;8.656;2023-01-16T22:17:38;9.10;;;8.57;;
77402;SDS011;66472;53.046;8.656;2023-01-16T22:23:03;9.00;;;8.47;;
77402;SDS011;66472;53.046;8.656;2023-01-16T22:28:06;9.43;;;8.83;;
77402;SDS011;66472;53.046;8.656;2023-01-16T22:33:01;9.93;;;9.33;;
77402;SDS011;66472;53.046;8.656;2023-01-16T22:37:56;9.63;;;9.02;;
77402;SDS011;66472;53.046;8.656;2023-01-16T22:42:52;9.70;;;9.02;;
77402;SDS011;66472;53.046;8.656;2023-01-16T22:47:48;9.13;;;8.63;;
77402;SDS011;66472;53.046;8.656;2023-01-16T22:52:46;9.83;;;8.93;;
77402;SDS011;66472;53.046;8.656;2023-01-16T22:57:42;10.70;;;9.90;;
77402;SDS011;66472;53.046;8.656;2023-01-16T23:02:37;10.23;;;9.63;;
77402;SDS011;66472;53.046;8.656;2023-01-16T23:07:33;9.20;;;8.60;;
77402;SDS011;66472;53.046;8.656;2023-01-16T23:12:29;9.10;;;8.60;;
77402;SDS011;66472;53.046;8.656;2023-01-16T23:17:24;9.40;;;8.90;;
77402;SDS011;66472;53.046;8.656;2023-01-16T23:22:20;9.93;;;9.23;;
77402;SDS011;66472;53.046;8.656;2023-01-16T23:27:15;10.23;;;9.63;;
77402;SDS011;66472;53.046;8.656;2023-01-16T23:32:11;10.07;;;9.47;;
77402;SDS011;66472;53.046;8.656;2023-01-16T23:37:06;11.47;;;10.67;;
77402;SDS011;66472;53.046;8.656;2023-01-16T23:42:01;11.33;;;10.63;;
77402;SDS011;66472;53.046;8.656;2023-01-16T23:47:16;12.47;;;11.67;;
77402;SDS011;66472;53.046;8.656;2023-01-16T23:52:13;11.90;;;11.17;;
77402;SDS011;66472;53.046;8.656;2023-01-16T23:57:11;14.07;;;13.20;;
